Bernice Lind — WDC8364 — position and weather

sailwx.info

Track history (hours):
 
Tides and Currents Weather Stations Pressure Air Temp Water Temp Dewpoint Dewpoint Depression Visibility Wind Speed Wind Dir Waves Ship Positions

Bernice Lind

More information available from US FCC via Universal Licensing System and Coast Guard Vessel Documentation Center.

Last reported at 2014-Sep-02 06:33 UTC. Time now 2014-Sep-03 02:27 UTC.
Position N 38°13' W 122°36'.

Length 18 m; draft 2.1 m.

Type: Towing. MMSI: 367085890.

Date/timePositionNaut miles runAvg speedWind from/ knotsBaromVisibWave heightAir tempDewpointWater temp
2014-Sep-02 06:33N 38°13' W 122°36'  
2014-Aug-30 03:28N 38°14' W 122°36'0 0.0
2014-Aug-29 10:33N 38°13' W 122°36'2 1.6
2014-Aug-29 09:33N 38°12' W 122°35'3 2.5
2014-Aug-29 08:32N 38°11' W 122°32'4 3.6
2014-Aug-29 07:24N 38°07' W 122°30'6 3.0
2014-Aug-29 05:33N 38°03' W 122°26'2 1.6
2014-Aug-29 04:33N 38°01' W 122°26'2 1.5
2014-Aug-29 03:33N 37°60' W 122°26'1 1.4
2014-Aug-29 02:31N 38°01' W 122°25'1 0.5
2014-Aug-29 01:30N 38°02' W 122°25'3 3.6
2014-Aug-29 00:33N 38°03' W 122°21'4 3.5
2014-Aug-28 23:33N 38°04' W 122°17'2 2.2
2014-Aug-28 22:33N 38°06' W 122°15'0 0.0
2014-Aug-28 00:32N 38°06' W 122°16'3 2.6
2014-Aug-27 23:33N 38°04' W 122°13'3 3.4
2014-Aug-27 22:33N 38°02' W 122°09'3 3.1
2014-Aug-27 21:30N 38°03' W 122°05'9 1.0
2014-Aug-27 12:25N 38°03' W 121°54'6 6.9
2014-Aug-27 11:29N 38°04' W 122°02'6 6.7
2014-Aug-27 10:33N 38°02' W 122°10'6 5.8
2014-Aug-27 09:32N 38°06' W 122°16'4 4.4
2014-Aug-27 08:33N 38°10' W 122°18'4 3.5
2014-Aug-27 07:31N 38°13' W 122°18'1 0.0
2014-Aug-26 08:14N 38°14' W 122°18'2 2.6
2014-Aug-26 07:30N 38°12' W 122°19'3 3.0
2014-Aug-26 06:25N 38°09' W 122°18'1 0.8
2014-Aug-26 05:16N 38°08' W 122°17'1 0.8
2014-Aug-26 04:33N 38°08' W 122°17'4 2.5
2014-Aug-26 03:03N 38°04' W 122°15'3 4.7
2014-Aug-26 02:27N 38°03' W 122°11'  
Track history (hours):
 
Tides and Currents Weather Stations Pressure Air Temp Water Temp Dewpoint Dewpoint Depression Visibility Wind Speed Wind Dir Waves Ship Positions

Bernice Lind

More information available from US FCC via Universal Licensing System and Coast Guard Vessel Documentation Center.

Last reported at 2014-Sep-02 06:33 UTC. Time now 2014-Sep-03 02:27 UTC.
Position N 38°13' W 122°36'.

Length 18 m; draft 2.1 m.

Type: Towing. MMSI: 367085890.

Date/timePositionNaut miles runAvg speedWind from/ knotsBaromVisibWave heightAir tempDewpointWater temp
2014-Sep-02 06:33N 38°13' W 122°36'  
2014-Aug-30 03:28N 38°14' W 122°36'0 0.0
2014-Aug-29 10:33N 38°13' W 122°36'2 1.6
2014-Aug-29 09:33N 38°12' W 122°35'3 2.5
2014-Aug-29 08:32N 38°11' W 122°32'4 3.6
2014-Aug-29 07:24N 38°07' W 122°30'6 3.0
2014-Aug-29 05:33N 38°03' W 122°26'2 1.6
2014-Aug-29 04:33N 38°01' W 122°26'2 1.5
2014-Aug-29 03:33N 37°60' W 122°26'1 1.4
2014-Aug-29 02:31N 38°01' W 122°25'1 0.5
2014-Aug-29 01:30N 38°02' W 122°25'3 3.6
2014-Aug-29 00:33N 38°03' W 122°21'4 3.5
2014-Aug-28 23:33N 38°04' W 122°17'2 2.2
2014-Aug-28 22:33N 38°06' W 122°15'0 0.0
2014-Aug-28 00:32N 38°06' W 122°16'3 2.6
2014-Aug-27 23:33N 38°04' W 122°13'3 3.4
2014-Aug-27 22:33N 38°02' W 122°09'3 3.1
2014-Aug-27 21:30N 38°03' W 122°05'9 1.0
2014-Aug-27 12:25N 38°03' W 121°54'6 6.9
2014-Aug-27 11:29N 38°04' W 122°02'6 6.7
2014-Aug-27 10:33N 38°02' W 122°10'6 5.8
2014-Aug-27 09:32N 38°06' W 122°16'4 4.4
2014-Aug-27 08:33N 38°10' W 122°18'4 3.5
2014-Aug-27 07:31N 38°13' W 122°18'1 0.0
2014-Aug-26 08:14N 38°14' W 122°18'2 2.6
2014-Aug-26 07:30N 38°12' W 122°19'3 3.0
2014-Aug-26 06:25N 38°09' W 122°18'1 0.8
2014-Aug-26 05:16N 38°08' W 122°17'1 0.8
2014-Aug-26 04:33N 38°08' W 122°17'4 2.5
2014-Aug-26 03:03N 38°04' W 122°15'3 4.7
2014-Aug-26 02:27N 38°03' W 122°11'  

Dump ship's entire track history